Time;durP1;ratioP1;P1;durP2;ratioP2;P2;SDS_P1;SDS_P2;PMS_P1;PMS_P2;Temp;Humidity;BMP_temperature;BMP_pressure;BME280_temperature;BME280_humidity;BME280_pressure;Samples;Min_cycle;Max_cycle;Signal;HPM_P1;HPM_P2
2022/03/31 00:00:35;;;;;;;4.65;3.38;;;27.30;33.40;;;;;;5082519;28;20091;-63
2022/03/31 00:03:05;;;;;;;9.32;4.25;;;27.30;33.40;;;;;;5079247;28;20050;-63
2022/03/31 00:05:32;;;;;;;8.57;4.18;;;27.30;33.60;;;;;;5082374;28;20101;-62
2022/03/31 00:08:00;;;;;;;5.05;3.65;;;27.30;33.80;;;;;;5078363;28;20154;-62
2022/03/31 00:10:29;;;;;;;3.63;2.90;;;27.30;34.00;;;;;;5080537;28;20075;-63
2022/03/31 00:12:58;;;;;;;4.78;3.90;;;27.30;34.10;;;;;;5081795;28;20124;-62
2022/03/31 00:15:27;;;;;;;6.55;3.70;;;27.30;34.20;;;;;;5080189;28;20070;-62
2022/03/31 00:17:57;;;;;;;4.53;3.60;;;27.30;34.20;;;;;;5080263;28;20036;-62
2022/03/31 00:20:24;;;;;;;3.03;2.83;;;27.30;34.20;;;;;;5079565;28;20051;-63
2022/03/31 00:22:51;;;;;;;3.28;2.90;;;27.30;34.30;;;;;;5080649;28;20066;-62
2022/03/31 00:25:18;;;;;;;6.82;3.67;;;27.30;34.30;;;;;;5069795;28;20497;-63
2022/03/31 00:27:46;;;;;;;7.50;3.03;;;27.20;34.30;;;;;;5070237;28;20117;-63
2022/03/31 00:30:14;;;;;;;3.50;3.03;;;27.20;34.30;;;;;;5071057;28;20044;-63
2022/03/31 00:32:42;;;;;;;5.03;3.97;;;27.20;34.30;;;;;;5064119;28;20045;-63
2022/03/31 00:35:13;;;;;;;7.10;3.92;;;27.20;34.30;;;;;;5069421;28;20042;-63
2022/03/31 00:37:40;;;;;;;7.22;3.30;;;27.20;34.30;;;;;;5079539;28;20090;-63
2022/03/31 00:40:10;;;;;;;3.72;3.17;;;27.20;34.30;;;;;;5066142;28;20505;-62
2022/03/31 00:42:42;;;;;;;5.85;3.03;;;27.20;34.30;;;;;;5081342;28;20063;-62
2022/03/31 00:45:14;;;;;;;3.92;3.40;;;27.20;34.30;;;;;;5071424;28;20067;-63
2022/03/31 00:47:41;;;;;;;2.92;2.72;;;27.20;34.20;;;;;;5070848;28;20493;-63
2022/03/31 00:50:11;;;;;;;3.17;2.58;;;27.20;34.30;;;;;;5066225;28;20051;-62
2022/03/31 00:52:39;;;;;;;3.88;3.53;;;27.20;34.20;;;;;;5075291;28;20044;-63
2022/03/31 00:55:09;;;;;;;4.97;3.60;;;27.20;34.20;;;;;;5076350;28;20032;-63
2022/03/31 00:57:37;;;;;;;3.85;3.47;;;27.20;34.20;;;;;;5068180;28;20056;-63
2022/03/31 01:00:05;;;;;;;2.80;2.20;;;27.20;34.30;;;;;;5068028;28;20065;-64
2022/03/31 01:02:35;;;;;;;3.85;2.33;;;27.10;34.20;;;;;;5077804;28;20040;-63
2022/03/31 01:05:04;;;;;;;5.45;2.65;;;27.10;34.20;;;;;;5066844;28;20040;-64
2022/03/31 01:07:34;;;;;;;4.50;3.03;;;27.10;34.20;;;;;;5069261;28;20044;-62
2022/03/31 01:10:02;;;;;;;3.72;2.50;;;27.20;34.20;;;;;;5067430;28;20044;-61
2022/03/31 01:12:29;;;;;;;4.20;2.97;;;27.10;34.20;;;;;;5079987;28;20040;-61
2022/03/31 01:15:11;;;;;;;3.08;2.88;;;27.10;34.10;;;;;;5078579;28;20051;-61
2022/03/31 01:17:41;;;;;;;3.65;3.35;;;27.20;34.20;;;;;;5073660;28;20074;-62
2022/03/31 01:20:14;;;;;;;3.97;2.50;;;27.10;34.10;;;;;;5078379;28;20047;-62
2022/03/31 01:22:43;;;;;;;3.05;2.63;;;27.10;34.20;;;;;;5075688;28;20123;-62
2022/03/31 01:25:12;;;;;;;4.35;3.67;;;27.10;34.10;;;;;;5066577;28;20775;-62
2022/03/31 01:27:41;;;;;;;3.90;2.85;;;27.10;34.20;;;;;;5069941;28;20051;-62
2022/03/31 01:30:11;;;;;;;3.47;1.98;;;27.10;34.10;;;;;;5072475;28;20440;-62
2022/03/31 01:32:38;;;;;;;4.53;2.63;;;27.10;34.10;;;;;;5069900;28;20048;-62
2022/03/31 01:35:08;;;;;;;2.78;2.33;;;27.10;34.10;;;;;;5064460;28;20893;-62
2022/03/31 01:37:35;;;;;;;2.78;2.58;;;27.10;34.10;;;;;;5076845;28;20528;-62
2022/03/31 01:40:03;;;;;;;3.33;2.42;;;27.10;34.00;;;;;;5070415;28;20162;-62
2022/03/31 01:42:32;;;;;;;4.03;2.80;;;27.00;34.00;;;;;;5069862;28;20506;-62
2022/03/31 01:44:59;;;;;;;4.55;2.35;;;27.10;34.00;;;;;;5071309;28;20052;-62
2022/03/31 01:47:26;;;;;;;2.58;2.40;;;27.00;34.00;;;;;;5065754;28;20458;-64
2022/03/31 01:49:54;;;;;;;2.92;2.72;;;27.00;34.00;;;;;;5068529;28;20062;-61
2022/03/31 01:52:22;;;;;;;3.42;2.70;;;27.00;34.00;;;;;;5076562;28;20047;-62
2022/03/31 01:54:49;;;;;;;3.47;2.60;;;27.00;34.00;;;;;;5066160;28;20040;-61
2022/03/31 01:57:16;;;;;;;4.22;3.05;;;27.00;34.00;;;;;;5068819;28;20531;-62
2022/03/31 01:59:45;;;;;;;4.07;3.28;;;27.00;34.00;;;;;;5075073;28;20036;-61
2022/03/31 02:02:14;;;;;;;3.45;3.13;;;27.00;34.00;;;;;;5076875;28;20040;-61
2022/03/31 02:04:42;;;;;;;5.32;3.65;;;27.00;34.00;;;;;;5070871;28;20119;-62
2022/03/31 02:07:09;;;;;;;5.93;3.25;;;27.00;34.00;;;;;;5080391;28;20090;-63
2022/03/31 02:09:37;;;;;;;3.67;2.50;;;26.90;33.90;;;;;;5066259;28;20040;-63
2022/03/31 02:12:06;;;;;;;5.22;2.72;;;27.00;34.00;;;;;;5067830;28;20110;-63
2022/03/31 02:14:37;;;;;;;4.20;3.08;;;26.90;33.90;;;;;;5066755;28;20129;-63
2022/03/31 02:17:06;;;;;;;3.60;2.88;;;26.90;33.90;;;;;;5065879;28;20044;-63
2022/03/31 02:19:33;;;;;;;3.58;3.15;;;26.90;33.90;;;;;;5073734;28;20036;-63
2022/03/31 02:22:01;;;;;;;3.00;2.72;;;26.90;33.90;;;;;;5071152;28;20064;-62
2022/03/31 02:24:29;;;;;;;2.90;2.17;;;26.90;33.90;;;;;;5079819;28;20041;-62
2022/03/31 02:26:57;;;;;;;3.78;3.53;;;26.90;33.90;;;;;;5077534;28;20798;-62
2022/03/31 02:29:24;;;;;;;3.63;3.28;;;26.90;33.90;;;;;;5082227;28;20114;-63
2022/03/31 02:31:51;;;;;;;3.67;3.42;;;26.80;33.80;;;;;;5075440;28;20090;-63
2022/03/31 02:34:19;;;;;;;3.83;3.03;;;26.80;33.80;;;;;;5069284;28;20040;-62
2022/03/31 02:36:47;;;;;;;4.22;3.72;;;26.80;33.90;;;;;;5069242;28;20044;-63
2022/03/31 02:39:14;;;;;;;5.45;3.78;;;26.80;33.90;;;;;;5081513;28;20040;-62
2022/03/31 02:41:42;;;;;;;5.68;3.45;;;26.80;34.00;;;;;;5083314;28;21042;-63
2022/03/31 02:44:10;;;;;;;6.22;3.45;;;26.80;34.00;;;;;;5081434;28;20579;-64
2022/03/31 02:46:37;;;;;;;5.05;3.75;;;26.70;33.90;;;;;;5070920;28;20044;-63
2022/03/31 02:49:05;;;;;;;4.30;3.17;;;26.80;34.00;;;;;;5070236;28;20397;-64
2022/03/31 02:51:33;;;;;;;4.85;3.25;;;26.70;34.00;;;;;;5075735;28;20052;-63
2022/03/31 02:56:45;;;;;;;6.93;3.47;;;26.70;34.10;;;;;;5075370;28;20123;-64
2022/03/31 02:59:12;;;;;;;4.80;4.40;;;26.70;34.00;;;;;;5068456;28;20037;-63
2022/03/31 03:01:42;;;;;;;4.93;3.85;;;26.70;34.00;;;;;;5068339;28;20437;-63
2022/03/31 03:04:09;;;;;;;4.40;3.70;;;26.70;34.00;;;;;;5066078;28;20487;-62
2022/03/31 03:06:38;;;;;;;3.90;3.60;;;26.70;34.00;;;;;;5071801;28;20056;-62
2022/03/31 03:09:05;;;;;;;5.25;4.18;;;26.70;34.00;;;;;;5074128;28;20128;-62
2022/03/31 03:11:32;;;;;;;12.35;4.22;;;26.70;34.10;;;;;;5074472;28;20518;-61
2022/03/31 03:14:00;;;;;;;5.32;4.10;;;26.60;34.00;;;;;;5081572;28;20113;-65
2022/03/31 03:16:26;;;;;;;4.07;3.60;;;26.60;34.00;;;;;;5068396;28;20037;-64
2022/03/31 03:18:54;;;;;;;4.60;3.80;;;26.60;34.10;;;;;;5075859;28;20610;-64
2022/03/31 03:21:22;;;;;;;8.23;4.60;;;26.60;34.00;;;;;;5071721;28;20811;-64
2022/03/31 03:23:50;;;;;;;8.05;4.22;;;26.60;34.00;;;;;;5075055;28;20436;-63
2022/03/31 03:26:17;;;;;;;6.85;4.68;;;26.50;34.00;;;;;;5071761;28;20040;-63
2022/03/31 03:28:46;;;;;;;11.32;4.32;;;26.50;34.10;;;;;;5069656;28;20044;-63
2022/03/31 03:31:13;;;;;;;6.82;4.00;;;26.50;34.10;;;;;;5066001;28;20047;-63
2022/03/31 03:33:41;;;;;;;6.55;4.57;;;26.40;34.10;;;;;;5070189;28;20052;-63
2022/03/31 03:36:11;;;;;;;9.73;6.60;;;26.40;34.10;;;;;;5074139;28;20051;-62
2022/03/31 03:38:38;;;;;;;5.25;4.78;;;26.40;34.20;;;;;;5074282;28;20040;-62
2022/03/31 03:41:07;;;;;;;5.88;4.60;;;26.30;34.10;;;;;;5080247;28;20408;-62
2022/03/31 03:43:34;;;;;;;7.50;4.72;;;26.30;34.20;;;;;;5081201;28;20075;-62
2022/03/31 03:46:01;;;;;;;4.93;4.45;;;26.30;34.20;;;;;;5074908;28;20094;-62
2022/03/31 03:48:28;;;;;;;5.50;5.00;;;26.30;34.30;;;;;;5070740;28;20047;-61
2022/03/31 03:50:55;;;;;;;5.30;3.47;;;26.20;34.30;;;;;;5073470;28;20491;-61
2022/03/31 03:53:23;;;;;;;7.80;6.68;;;26.20;34.40;;;;;;5069669;28;20094;-62
2022/03/31 03:55:50;;;;;;;4.30;3.92;;;26.20;34.40;;;;;;5070109;28;20445;-62
2022/03/31 03:58:19;;;;;;;5.22;4.18;;;26.20;34.50;;;;;;5069202;28;20052;-62
2022/03/31 04:00:46;;;;;;;5.07;4.50;;;26.20;34.50;;;;;;5073718;28;20044;-61
2022/03/31 04:03:13;;;;;;;5.80;4.30;;;26.10;34.40;;;;;;5071329;28;20725;-61
2022/03/31 04:05:40;;;;;;;5.20;4.07;;;26.10;34.40;;;;;;5071152;28;20052;-61
2022/03/31 04:08:08;;;;;;;11.30;4.78;;;26.10;34.50;;;;;;5068505;28;20047;-61
2022/03/31 04:10:35;;;;;;;6.07;4.38;;;26.10;34.50;;;;;;5071902;28;20040;-62
2022/03/31 04:13:02;;;;;;;5.60;4.45;;;26.10;34.50;;;;;;5079989;28;20643;-61
2022/03/31 04:15:30;;;;;;;6.43;5.05;;;26.00;34.50;;;;;;5082254;28;20813;-62
2022/03/31 04:17:58;;;;;;;6.57;4.07;;;26.00;34.60;;;;;;5073788;28;20541;-62
2022/03/31 04:20:25;;;;;;;5.70;4.40;;;26.00;34.70;;;;;;5064816;28;20040;-61
2022/03/31 04:22:52;;;;;;;7.90;4.50;;;26.00;34.60;;;;;;5073971;28;20044;-61
2022/03/31 04:25:19;;;;;;;4.43;4.03;;;26.00;34.60;;;;;;5070135;28;20074;-62
2022/03/31 04:27:46;;;;;;;7.97;5.50;;;26.00;34.60;;;;;;5074519;28;20041;-63
2022/03/31 04:30:18;;;;;;;5.75;4.18;;;25.90;34.50;;;;;;5078322;28;20044;-64
2022/03/31 04:32:46;;;;;;;8.05;4.30;;;25.90;34.60;;;;;;5078209;28;20874;-63
2022/03/31 04:35:15;;;;;;;7.45;5.35;;;25.90;34.60;;;;;;5065965;28;20266;-63
2022/03/31 04:37:42;;;;;;;6.40;5.45;;;25.90;34.60;;;;;;5068698;28;20110;-63
2022/03/31 04:40:10;;;;;;;7.25;5.38;;;25.90;34.60;;;;;;5065489;28;20049;-63
2022/03/31 04:42:38;;;;;;;4.60;3.15;;;25.90;34.60;;;;;;5078772;28;20048;-63
2022/03/31 04:45:06;;;;;;;6.78;4.70;;;25.90;35.20;;;;;;5070681;28;20519;-62
2022/03/31 04:47:33;;;;;;;8.07;5.70;;;25.90;34.60;;;;;;5074412;28;20044;-61
2022/03/31 04:50:02;;;;;;;9.25;5.63;;;25.90;34.70;;;;;;5067374;28;20032;-61
2022/03/31 04:52:29;;;;;;;7.63;5.30;;;25.90;34.70;;;;;;5078451;28;20044;-62
2022/03/31 04:54:57;;;;;;;7.28;5.20;;;25.80;34.60;;;;;;5077740;28;20044;-62
2022/03/31 04:57:24;;;;;;;9.52;5.32;;;25.90;34.60;;;;;;5079464;28;20538;-63
2022/03/31 04:59:51;;;;;;;6.38;5.32;;;25.80;34.50;;;;;;5076999;28;20887;-63
2022/03/31 05:02:18;;;;;;;7.70;4.50;;;25.80;34.50;;;;;;5073120;28;20911;-63
2022/03/31 05:04:45;;;;;;;6.45;4.75;;;25.80;34.50;;;;;;5072278;28;20088;-63
2022/03/31 05:07:14;;;;;;;7.10;5.20;;;25.80;34.50;;;;;;5077401;28;20036;-63
2022/03/31 05:09:42;;;;;;;5.07;4.15;;;25.80;34.60;;;;;;5081722;28;20043;-63
2022/03/31 05:12:11;;;;;;;8.00;4.13;;;25.80;34.70;;;;;;5078915;28;20148;-62
2022/03/31 05:14:38;;;;;;;4.88;4.45;;;25.80;34.80;;;;;;5077814;28;20059;-61
2022/03/31 05:17:06;;;;;;;5.72;4.10;;;25.70;34.80;;;;;;5077669;28;20036;-61
2022/03/31 05:19:34;;;;;;;9.02;4.00;;;25.70;34.80;;;;;;5074743;28;20048;-62
2022/03/31 05:22:01;;;;;;;6.20;3.95;;;25.80;35.00;;;;;;5079769;28;20038;-61
2022/03/31 05:24:30;;;;;;;5.18;3.78;;;25.70;34.90;;;;;;5068357;28;20048;-62
2022/03/31 05:26:58;;;;;;;5.47;4.32;;;25.70;34.90;;;;;;5078283;28;20067;-62
2022/03/31 05:29:25;;;;;;;4.63;4.28;;;25.70;34.90;;;;;;5077817;28;20137;-62
2022/03/31 05:31:53;;;;;;;4.30;3.97;;;25.70;34.90;;;;;;5068447;28;20485;-62
2022/03/31 05:34:21;;;;;;;3.90;3.58;;;25.70;34.90;;;;;;5063769;28;20055;-62
2022/03/31 05:36:49;;;;;;;5.05;3.70;;;25.70;34.90;;;;;;5077078;28;20118;-62
2022/03/31 05:39:16;;;;;;;6.05;3.70;;;25.70;34.90;;;;;;5071990;28;20044;-64
2022/03/31 05:41:44;;;;;;;4.05;3.75;;;25.70;35.00;;;;;;5072196;28;20119;-64
2022/03/31 05:44:12;;;;;;;4.88;4.47;;;25.70;35.00;;;;;;5076063;28;20421;-60
2022/03/31 05:46:40;;;;;;;6.00;4.63;;;25.70;35.00;;;;;;5072449;28;20408;-64
2022/03/31 05:49:07;;;;;;;9.50;5.22;;;25.70;35.00;;;;;;5076614;28;20571;-62
2022/03/31 05:51:34;;;;;;;4.43;4.03;;;25.70;35.00;;;;;;5085267;28;20040;-61
2022/03/31 05:54:03;;;;;;;5.57;4.97;;;25.70;35.00;;;;;;5077470;28;20039;-61
2022/03/31 05:56:31;;;;;;;5.72;4.30;;;25.70;35.00;;;;;;5083863;28;20401;-62
2022/03/31 05:59:00;;;;;;;4.25;3.80;;;25.70;35.10;;;;;;5081803;28;20044;-62
2022/03/31 06:01:27;;;;;;;7.10;4.60;;;25.70;35.10;;;;;;5082193;28;20036;-62
2022/03/31 06:03:55;;;;;;;5.57;4.28;;;25.70;35.00;;;;;;5082578;28;20754;-62
2022/03/31 06:06:24;;;;;;;4.22;3.55;;;25.70;35.00;;;;;;5084585;28;20515;-62
2022/03/31 06:08:51;;;;;;;4.93;4.22;;;25.70;35.00;;;;;;5082178;28;20130;-62
2022/03/31 06:11:18;;;;;;;6.63;4.03;;;25.70;35.10;;;;;;5085195;28;20131;-63
2022/03/31 06:13:46;;;;;;;4.80;4.13;;;25.70;35.10;;;;;;5079335;28;20051;-57
2022/03/31 06:16:14;;;;;;;4.40;3.70;;;25.70;35.20;;;;;;5085083;28;20384;-58
2022/03/31 06:18:41;;;;;;;2.60;2.40;;;25.70;35.50;;;;;;5087193;28;20076;-57
2022/03/31 06:21:09;;;;;;;3.80;3.08;;;25.60;36.00;;;;;;5087216;28;20085;-58
2022/03/31 06:23:36;;;;;;;10.30;3.58;;;25.40;36.30;;;;;;5084209;28;20055;-58
2022/03/31 06:26:04;;;;;;;5.90;4.07;;;25.30;36.60;;;;;;5086211;28;20067;-55
2022/03/31 06:28:32;;;;;;;4.50;3.05;;;25.10;36.90;;;;;;5086548;28;20067;-57
2022/03/31 06:31:00;;;;;;;4.55;3.25;;;25.00;37.20;;;;;;5087467;28;20042;-58
2022/03/31 06:33:28;;;;;;;5.28;3.78;;;24.80;37.50;;;;;;5089261;28;20028;-58
2022/03/31 06:35:56;;;;;;;6.03;3.35;;;24.70;37.60;;;;;;5082458;28;20036;-58
2022/03/31 06:38:23;;;;;;;5.60;3.72;;;24.60;37.90;;;;;;5085514;28;20135;-59
2022/03/31 06:43:31;;;;;;;6.35;4.35;;;24.40;38.20;;;;;;5088144;28;20060;-57
2022/03/31 06:45:59;;;;;;;5.38;4.10;;;24.30;38.40;;;;;;5078567;28;20665;-59
2022/03/31 06:48:26;;;;;;;7.13;4.22;;;24.10;38.50;;;;;;5084175;28;20031;-65
2022/03/31 06:50:55;;;;;;;5.85;4.38;;;24.10;38.80;;;;;;5081519;28;20043;-59
2022/03/31 06:53:22;;;;;;;7.10;3.85;;;24.00;39.20;;;;;;5085432;28;20036;-56
2022/03/31 06:55:50;;;;;;;6.38;4.68;;;23.90;39.30;;;;;;5087732;28;20952;-54
2022/03/31 06:58:18;;;;;;;4.45;4.05;;;23.90;39.40;;;;;;5085585;28;20048;-61
2022/03/31 07:00:46;;;;;;;11.43;4.63;;;23.80;39.50;;;;;;5086644;28;20123;-60
2022/03/31 07:03:13;;;;;;;16.58;4.57;;;23.70;39.60;;;;;;5082054;28;20097;-61
2022/03/31 07:05:40;;;;;;;10.45;4.45;;;23.70;39.80;;;;;;5077957;28;20048;-51
2022/03/31 07:08:10;;;;;;;13.73;4.47;;;23.70;40.00;;;;;;5085288;28;20056;-48
2022/03/31 07:10:37;;;;;;;9.73;4.88;;;23.70;40.10;;;;;;5081625;28;20037;-48
2022/03/31 07:13:04;;;;;;;5.45;4.43;;;23.70;40.20;;;;;;5088358;28;20043;-52
2022/03/31 07:15:33;;;;;;;8.77;4.15;;;23.70;40.30;;;;;;5083333;28;20101;-50
2022/03/31 07:18:03;;;;;;;7.97;4.82;;;23.70;40.40;;;;;;5084419;28;20044;-48
2022/03/31 07:20:30;;;;;;;12.80;5.53;;;23.70;40.50;;;;;;5082236;28;20066;-49
2022/03/31 07:22:58;;;;;;;7.22;5.80;;;23.70;40.60;;;;;;5081809;28;20068;-50
2022/03/31 07:25:28;;;;;;;15.57;7.40;;;23.80;40.90;;;;;;5077175;28;20052;-51
2022/03/31 07:27:56;;;;;;;56.80;20.73;;;23.80;41.40;;;;;;5084381;28;20462;-49
2022/03/31 07:30:25;;;;;;;61.92;25.55;;;23.80;42.30;;;;;;5080466;28;20118;-48
2022/03/31 07:32:54;;;;;;;79.05;33.30;;;23.70;43.30;;;;;;5080415;28;20109;-48
2022/03/31 07:35:23;;;;;;;68.18;30.95;;;23.70;44.60;;;;;;5080553;28;20822;-53
2022/03/31 07:37:51;;;;;;;66.13;26.35;;;23.80;45.40;;;;;;5079208;28;20044;-58
2022/03/31 07:40:20;;;;;;;60.53;24.25;;;23.80;45.50;;;;;;5084135;28;20048;-60
2022/03/31 07:42:49;;;;;;;58.33;23.55;;;23.80;45.50;;;;;;5079537;28;20041;-59
2022/03/31 07:45:16;;;;;;;49.70;20.10;;;23.80;45.40;;;;;;5087167;28;20135;-60
2022/03/31 07:47:44;;;;;;;41.85;19.10;;;23.80;45.10;;;;;;5077135;28;20047;-60
2022/03/31 07:50:13;;;;;;;49.92;19.08;;;23.70;44.80;;;;;;5077697;28;20083;-55
2022/03/31 07:52:41;;;;;;;53.75;18.90;;;23.70;46.10;;;;;;5070897;28;20106;-57
2022/03/31 07:55:10;;;;;;;41.13;16.40;;;23.70;47.20;;;;;;5080778;28;20080;-56
2022/03/31 07:57:38;;;;;;;37.45;15.80;;;23.70;48.50;;;;;;5080896;28;20050;-55
2022/03/31 08:00:09;;;;;;;39.65;16.65;;;23.70;49.10;;;;;;5071525;28;20508;-55
2022/03/31 08:02:44;;;;;;;36.70;16.60;;;23.70;49.30;;;;;;5075913;28;20125;-56
2022/03/31 08:05:12;;;;;;;40.38;16.10;;;23.70;49.20;;;;;;5076242;28;20080;-61
2022/03/31 08:07:39;;;;;;;38.58;15.05;;;23.70;49.10;;;;;;5082126;28;20102;-61
2022/03/31 08:10:08;;;;;;;36.75;13.88;;;23.70;48.90;;;;;;5073470;28;20143;-61
2022/03/31 08:12:36;;;;;;;30.80;16.20;;;23.70;48.70;;;;;;5089189;28;20132;-61
2022/03/31 08:15:04;;;;;;;34.35;13.90;;;23.70;48.30;;;;;;5084054;28;20040;-61
2022/03/31 08:17:33;;;;;;;35.40;13.05;;;23.70;48.10;;;;;;5080768;28;20438;-61
2022/03/31 08:20:00;;;;;;;36.17;14.43;;;23.70;47.90;;;;;;5071899;28;20040;-60
2022/03/31 08:22:27;;;;;;;21.48;12.98;;;23.70;47.80;;;;;;5067689;28;20029;-61
2022/03/31 08:24:54;;;;;;;26.17;13.27;;;23.70;47.60;;;;;;5069121;28;20520;-61
2022/03/31 08:27:22;;;;;;;27.90;12.57;;;23.60;47.40;;;;;;5079073;28;20032;-61
2022/03/31 08:29:49;;;;;;;22.90;11.95;;;23.60;47.40;;;;;;5077588;28;20150;-61
2022/03/31 08:32:16;;;;;;;20.65;10.80;;;23.60;47.30;;;;;;5073339;28;20036;-60
2022/03/31 08:34:45;;;;;;;18.27;10.65;;;23.60;47.30;;;;;;5082908;28;20052;-61
2022/03/31 08:37:13;;;;;;;25.98;10.63;;;23.60;47.20;;;;;;5074397;28;20044;-60
2022/03/31 08:39:40;;;;;;;19.95;10.18;;;23.50;47.10;;;;;;5075315;28;20055;-61
2022/03/31 08:42:08;;;;;;;13.25;8.65;;;23.50;47.00;;;;;;5078879;28;20504;-61
2022/03/31 08:44:39;;;;;;;16.67;7.50;;;23.50;47.00;;;;;;5075791;28;20048;-61
2022/03/31 08:47:08;;;;;;;20.02;8.57;;;23.50;46.90;;;;;;5074066;28;20153;-61
2022/03/31 08:49:36;;;;;;;11.32;6.22;;;23.50;46.80;;;;;;5067656;28;20045;-61
2022/03/31 08:52:06;;;;;;;12.75;7.40;;;23.50;46.70;;;;;;5074027;28;20040;-61
2022/03/31 08:54:33;;;;;;;10.77;6.50;;;23.50;46.70;;;;;;5069958;28;20040;-60
2022/03/31 08:57:01;;;;;;;13.05;6.45;;;23.40;46.50;;;;;;5069119;28;20060;-61
2022/03/31 08:59:28;;;;;;;10.00;6.15;;;23.40;46.40;;;;;;5073729;28;20570;-60
2022/03/31 09:01:56;;;;;;;10.73;5.97;;;23.40;46.30;;;;;;5072941;28;20036;-61
2022/03/31 09:04:24;;;;;;;13.90;5.55;;;23.40;46.30;;;;;;5074557;28;20133;-60
2022/03/31 09:07:02;;;;;;;12.88;5.10;;;23.30;46.20;;;;;;5082286;28;20051;-61
2022/03/31 09:09:31;;;;;;;9.57;4.40;;;23.30;46.20;;;;;;5071330;28;20423;-61
2022/03/31 09:11:58;;;;;;;9.30;4.97;;;23.30;46.20;;;;;;5081307;28;20047;-61
2022/03/31 09:14:29;;;;;;;4.88;3.35;;;23.30;46.10;;;;;;5079211;28;20109;-61
2022/03/31 09:16:57;;;;;;;5.72;3.92;;;23.30;46.10;;;;;;5077601;28;20128;-61
2022/03/31 09:19:25;;;;;;;5.30;3.58;;;23.30;46.00;;;;;;5070565;28;20098;-61
2022/03/31 09:21:57;;;;;;;8.05;3.80;;;23.20;45.90;;;;;;5073604;28;20151;-61
2022/03/31 09:24:27;;;;;;;6.85;3.28;;;23.20;45.80;;;;;;5078993;28;20510;-61
2022/03/31 09:26:58;;;;;;;5.15;3.60;;;23.20;45.80;;;;;;5077593;28;20519;-61
2022/03/31 09:29:27;;;;;;;5.97;3.58;;;23.20;45.80;;;;;;5071487;28;20036;-61
2022/03/31 09:32:06;;;;;;;5.30;2.67;;;23.10;45.60;;;;;;5080013;28;20037;-61
2022/03/31 09:34:40;;;;;;;3.63;2.70;;;23.20;45.70;;;;;;5067024;28;20111;-61
2022/03/31 09:37:08;;;;;;;4.97;1.80;;;23.10;45.60;;;;;;5067706;28;20040;-60
2022/03/31 09:39:36;;;;;;;5.07;2.95;;;23.10;45.60;;;;;;5068806;28;20052;-60
2022/03/31 09:42:11;;;;;;;3.53;1.73;;;23.10;45.60;;;;;;5076527;28;20471;-61
2022/03/31 09:44:39;;;;;;;2.30;1.50;;;23.10;45.50;;;;;;5071398;28;20895;-61
2022/03/31 09:47:06;;;;;;;3.60;2.00;;;23.10;45.50;;;;;;5070892;28;20043;-61
2022/03/31 09:49:33;;;;;;;2.25;1.63;;;23.10;45.50;;;;;;5066718;28;20048;-59
2022/03/31 09:52:02;;;;;;;4.57;0.98;;;23.00;45.40;;;;;;5077227;28;20063;-61
2022/03/31 09:54:31;;;;;;;4.05;1.58;;;23.00;45.30;;;;;;5072721;28;20048;-60
2022/03/31 09:57:00;;;;;;;5.90;1.13;;;23.00;45.20;;;;;;5074033;28;20037;-61
2022/03/31 09:59:31;;;;;;;2.20;1.58;;;23.00;45.20;;;;;;5079543;28;20132;-61
2022/03/31 10:02:00;;;;;;;1.35;0.75;;;23.00;45.10;;;;;;5071064;28;20044;-61
2022/03/31 10:04:27;;;;;;;3.70;1.02;;;23.00;45.00;;;;;;5079204;28;20039;-61
2022/03/31 10:06:54;;;;;;;3.70;1.10;;;23.00;45.00;;;;;;5087416;28;20135;-60
2022/03/31 10:09:23;;;;;;;2.13;1.02;;;23.00;45.00;;;;;;5069469;28;20420;-61
2022/03/31 10:11:56;;;;;;;1.27;1.00;;;22.90;44.90;;;;;;5079330;28;20532;-61
2022/03/31 10:14:33;;;;;;;2.05;0.73;;;22.90;44.90;;;;;;5072369;28;20040;-61
2022/03/31 10:17:06;;;;;;;1.73;0.50;;;22.90;44.90;;;;;;5068047;28;20063;-62
2022/03/31 10:19:36;;;;;;;1.17;0.40;;;22.90;44.90;;;;;;5070036;28;20049;-60
2022/03/31 10:22:06;;;;;;;0.60;0.50;;;22.90;44.90;;;;;;5067440;28;20047;-61
2022/03/31 10:24:41;;;;;;;2.45;0.47;;;22.90;44.80;;;;;;5077830;28;20121;-61
2022/03/31 10:27:09;;;;;;;2.05;0.25;;;22.90;44.80;;;;;;5074613;28;20076;-62
2022/03/31 10:29:40;;;;;;;1.77;0.40;;;22.90;44.70;;;;;;5070277;28;20044;-61
2022/03/31 10:32:18;;;;;;;0.90;0.63;;;22.90;44.70;;;;;;5070951;28;20040;-61
2022/03/31 10:34:48;;;;;;;1.60;0.52;;;22.90;44.60;;;;;;5069445;28;20037;-61
2022/03/31 10:37:18;;;;;;;0.85;0.20;;;22.90;44.50;;;;;;5073243;28;20044;-61
2022/03/31 10:39:56;;;;;;;1.92;0.75;;;22.90;44.50;;;;;;5080197;28;20056;-61
2022/03/31 10:42:24;;;;;;;0.70;0.60;;;22.90;44.40;;;;;;5081692;28;20052;-61
2022/03/31 10:45:05;;;;;;;1.90;0.28;;;23.00;44.40;;;;;;5080888;28;20598;-61
2022/03/31 10:47:33;;;;;;;1.23;0.30;;;23.00;44.30;;;;;;5071545;28;20040;-58
2022/03/31 10:50:01;;;;;;;1.50;0.70;;;22.90;44.30;;;;;;5071930;28;20055;-61
2022/03/31 10:52:32;;;;;;;1.25;0.22;;;22.90;44.80;;;;;;5072240;28;20417;-61
2022/03/31 10:55:08;;;;;;;0.73;0.30;;;22.90;44.10;;;;;;5085341;28;20036;-61
2022/03/31 10:57:41;;;;;;;0.20;0.20;;;23.00;44.10;;;;;;5075837;28;20048;-60
2022/03/31 11:00:12;;;;;;;0.50;0.30;;;23.00;44.00;;;;;;5077674;28;20048;-60
2022/03/31 11:02:44;;;;;;;0.55;0.55;;;23.00;44.00;;;;;;5073297;28;20459;-60
2022/03/31 11:05:12;;;;;;;1.60;0.13;;;23.00;43.90;;;;;;5074179;28;20513;-60
2022/03/31 11:07:39;;;;;;;0.60;0.40;;;23.00;43.90;;;;;;5073377;28;20028;-59
2022/03/31 11:10:09;;;;;;;0.30;0.30;;;22.90;43.70;;;;;;5077743;28;20405;-60
2022/03/31 11:12:37;;;;;;;0.20;0.20;;;23.00;43.80;;;;;;5085682;28;20040;-60
2022/03/31 11:15:07;;;;;;;1.23;0.30;;;23.00;43.70;;;;;;5071501;28;20064;-60
2022/03/31 11:17:37;;;;;;;0.60;0.20;;;23.00;43.60;;;;;;5077407;28;20048;-60
2022/03/31 11:20:14;;;;;;;0.28;0.10;;;23.00;43.60;;;;;;5072611;28;20060;-61
2022/03/31 11:22:48;;;;;;;0.30;0.10;;;23.00;43.50;;;;;;5070333;28;20041;-61
2022/03/31 11:25:15;;;;;;;1.02;0.15;;;23.00;43.50;;;;;;5072944;28;20044;-60
2022/03/31 11:27:46;;;;;;;0.20;0.10;;;23.00;43.50;;;;;;5077136;28;20044;-61
2022/03/31 11:30:16;;;;;;;0.68;0.20;;;23.00;43.50;;;;;;5078101;28;20421;-59
2022/03/31 11:32:48;;;;;;;1.55;0.25;;;23.00;43.40;;;;;;5077553;28;20055;-59
2022/03/31 11:35:17;;;;;;;0.28;0.10;;;23.00;43.30;;;;;;5068998;28;20045;-60
2022/03/31 11:37:46;;;;;;;0.10;0.10;;;23.00;43.30;;;;;;5072302;28;20436;-60
2022/03/31 11:40:17;;;;;;;0.40;0.10;;;22.90;43.10;;;;;;5070573;28;20056;-59
2022/03/31 11:42:46;;;;;;;0.10;0.10;;;22.90;43.10;;;;;;5086969;28;20050;-60
2022/03/31 11:45:27;;;;;;;0.47;0.10;;;22.90;43.00;;;;;;5074669;28;20049;-60
2022/03/31 11:48:01;;;;;;;0.32;0.10;;;23.00;43.00;;;;;;5075817;28;20032;-60
2022/03/31 11:50:30;;;;;;;2.72;0.10;;;22.90;43.00;;;;;;5072917;28;20647;-60
2022/03/31 11:52:57;;;;;;;0.32;0.10;;;22.90;43.00;;;;;;5077384;28;20031;-59
2022/03/31 11:55:26;;;;;;;0.28;0.20;;;22.90;42.90;;;;;;5072205;28;20044;-60
2022/03/31 11:57:55;;;;;;;0.10;0.10;;;22.90;42.90;;;;;;5077942;28;20051;-60
2022/03/31 12:00:23;;;;;;;0.10;0.10;;;22.90;42.90;;;;;;5080546;28;20052;-60
2022/03/31 12:03:01;;;;;;;0.15;0.15;;;22.90;42.90;;;;;;5077460;28;20040;-60
2022/03/31 12:05:29;;;;;;;0.10;0.03;;;22.90;42.90;;;;;;5076110;28;20072;-60
2022/03/31 12:07:58;;;;;;;0.30;0.10;;;22.90;42.80;;;;;;5071087;28;20047;-60
2022/03/31 12:10:26;;;;;;;0.10;0.10;;;22.90;42.80;;;;;;5070167;28;20097;-60
2022/03/31 12:12:56;;;;;;;0.30;0.10;;;22.80;42.70;;;;;;5083741;28;20048;-59
2022/03/31 12:15:25;;;;;;;0.43;0.10;;;22.90;42.70;;;;;;5077035;28;20132;-59
2022/03/31 12:18:05;;;;;;;0.10;0.10;;;22.90;42.60;;;;;;5076010;28;20076;-60
2022/03/31 12:20:34;;;;;;;1.27;0.00;;;22.90;42.50;;;;;;5074369;28;20509;-59
2022/03/31 12:23:01;;;;;;;0.98;0.17;;;22.90;42.50;;;;;;5082487;28;20652;-60
2022/03/31 12:25:34;;;;;;;0.43;0.10;;;22.90;42.50;;;;;;5067419;28;20041;-59
2022/03/31 12:28:04;;;;;;;0.20;0.20;;;22.90;42.40;;;;;;5068037;28;20043;-60
2022/03/31 12:30:42;;;;;;;3.30;0.28;;;22.90;42.40;;;;;;5072060;28;20367;-60
2022/03/31 12:33:19;;;;;;;0.10;0.10;;;23.00;42.30;;;;;;5078524;28;20524;-60
2022/03/31 12:35:57;;;;;;;0.10;0.10;;;22.90;42.30;;;;;;5072932;28;20051;-59
2022/03/31 12:38:44;;;;;;;0.40;0.22;;;22.90;42.30;;;;;;5072675;28;20036;-60
2022/03/31 12:41:18;;;;;;;1.23;0.10;;;23.00;42.20;;;;;;5075876;28;20043;-60
2022/03/31 12:43:57;;;;;;;0.13;0.10;;;22.90;42.20;;;;;;5081048;28;20509;-59
2022/03/31 12:46:28;;;;;;;0.20;0.00;;;23.00;42.20;;;;;;5067583;28;20040;-59
2022/03/31 12:49:00;;;;;;;0.82;0.00;;;22.90;42.10;;;;;;5074925;28;20040;-59
2022/03/31 12:51:28;;;;;;;0.30;0.10;;;23.00;42.00;;;;;;5077354;28;20044;-60
2022/03/31 12:53:56;;;;;;;0.20;0.10;;;22.90;41.90;;;;;;5081789;28;20036;-59
2022/03/31 12:56:25;;;;;;;4.47;0.10;;;23.00;41.90;;;;;;5079029;28;20774;-59